sensor_id;sensor_type;location;lat;lon;timestamp;pressure;altitude;pressure_sealevel;temperature;humidity
63097;BME280;49185;42.320;23.198;2023-06-22T00:02:13;95228.91;;;17.24;89.49
63097;BME280;49185;42.320;23.198;2023-06-22T00:04:39;95232.16;;;17.26;89.41
63097;BME280;49185;42.320;23.198;2023-06-22T00:07:05;95222.78;;;17.19;89.41
63097;BME280;49185;42.320;23.198;2023-06-22T00:09:31;95231.59;;;17.24;88.75
63097;BME280;49185;42.320;23.198;2023-06-22T00:11:56;95228.63;;;17.31;88.80
63097;BME280;49185;42.320;23.198;2023-06-22T00:14:22;95230.53;;;17.25;89.25
63097;BME280;49185;42.320;23.198;2023-06-22T00:16:47;95232.72;;;17.18;89.88
63097;BME280;49185;42.320;23.198;2023-06-22T00:19:13;95225.81;;;17.07;90.36
63097;BME280;49185;42.320;23.198;2023-06-22T00:21:38;95225.56;;;17.03;90.54
63097;BME280;49185;42.320;23.198;2023-06-22T00:24:04;95224.75;;;16.98;91.21
63097;BME280;49185;42.320;23.198;2023-06-22T00:26:30;95225.63;;;16.93;91.80
63097;BME280;49185;42.320;23.198;2023-06-22T00:28:55;95218.34;;;16.94;92.21
63097;BME280;49185;42.320;23.198;2023-06-22T00:31:20;95213.19;;;17.02;91.74
63097;BME280;49185;42.320;23.198;2023-06-22T00:33:46;95211.06;;;16.99;91.91
63097;BME280;49185;42.320;23.198;2023-06-22T00:36:11;95219.94;;;17.00;92.32
63097;BME280;49185;42.320;23.198;2023-06-22T00:38:37;95206.56;;;16.89;93.06
63097;BME280;49185;42.320;23.198;2023-06-22T00:41:02;95216.50;;;16.79;93.66
63097;BME280;49185;42.320;23.198;2023-06-22T00:43:27;95216.81;;;16.72;93.75
63097;BME280;49185;42.320;23.198;2023-06-22T00:45:55;95225.13;;;16.70;93.40
63097;BME280;49185;42.320;23.198;2023-06-22T00:48:21;95217.63;;;16.67;93.42
63097;BME280;49185;42.320;23.198;2023-06-22T00:50:47;95215.44;;;16.85;91.57
63097;BME280;49185;42.320;23.198;2023-06-22T00:53:13;95199.28;;;16.90;90.78
63097;BME280;49185;42.320;23.198;2023-06-22T00:55:42;95199.81;;;16.82;91.35
63097;BME280;49185;42.320;23.198;2023-06-22T00:58:08;95202.00;;;16.85;91.06
63097;BME280;49185;42.320;23.198;2023-06-22T01:00:33;95207.63;;;16.78;91.81
63097;BME280;49185;42.320;23.198;2023-06-22T01:02:59;95202.50;;;16.92;90.74
63097;BME280;49185;42.320;23.198;2023-06-22T01:05:25;95207.59;;;16.94;90.81
63097;BME280;49185;42.320;23.198;2023-06-22T01:16:29;95209.25;;;16.74;92.38
63097;BME280;49185;42.320;23.198;2023-06-22T01:18:57;95217.66;;;16.57;93.11
63097;BME280;49185;42.320;23.198;2023-06-22T01:21:28;95209.66;;;16.42;93.97
63097;BME280;49185;42.320;23.198;2023-06-22T01:24:23;95205.31;;;16.56;92.90
63097;BME280;49185;42.320;23.198;2023-06-22T01:29:33;95206.13;;;16.51;93.18
63097;BME280;49185;42.320;23.198;2023-06-22T01:32:00;95206.38;;;16.60;92.06
63097;BME280;49185;42.320;23.198;2023-06-22T01:34:29;95207.94;;;16.72;91.66
63097;BME280;49185;42.320;23.198;2023-06-22T01:36:56;95209.00;;;16.70;91.51
63097;BME280;49185;42.320;23.198;2023-06-22T01:39:23;95210.38;;;16.68;91.94
63097;BME280;49185;42.320;23.198;2023-06-22T01:41:48;95211.44;;;16.72;91.60
63097;BME280;49185;42.320;23.198;2023-06-22T01:44:14;95212.22;;;16.73;91.16
63097;BME280;49185;42.320;23.198;2023-06-22T01:46:40;95203.59;;;16.81;90.30
63097;BME280;49185;42.320;23.198;2023-06-22T01:49:07;95205.19;;;16.87;88.99
63097;BME280;49185;42.320;23.198;2023-06-22T01:51:33;95211.41;;;16.77;89.98
63097;BME280;49185;42.320;23.198;2023-06-22T01:53:59;95214.03;;;16.93;90.04
63097;BME280;49185;42.320;23.198;2023-06-22T01:56:26;95219.72;;;16.81;91.50
63097;BME280;49185;42.320;23.198;2023-06-22T01:59:02;95223.34;;;16.40;92.44
63097;BME280;49185;42.320;23.198;2023-06-22T02:01:36;95233.91;;;16.01;94.58
63097;BME280;49185;42.320;23.198;2023-06-22T02:04:07;95242.50;;;16.08;93.33
63097;BME280;49185;42.320;23.198;2023-06-22T02:06:39;95238.44;;;15.90;94.99
63097;BME280;49185;42.320;23.198;2023-06-22T02:09:13;95245.63;;;15.17;99.23
63097;BME280;49185;42.320;23.198;2023-06-22T02:11:41;95246.66;;;15.06;100.00
63097;BME280;49185;42.320;23.198;2023-06-22T02:14:08;95253.66;;;15.12;99.48
63097;BME280;49185;42.320;23.198;2023-06-22T02:16:35;95263.28;;;15.13;99.50
63097;BME280;49185;42.320;23.198;2023-06-22T02:19:02;95258.47;;;15.15;98.72
63097;BME280;49185;42.320;23.198;2023-06-22T02:21:27;95261.16;;;14.52;100.00
63097;BME280;49185;42.320;23.198;2023-06-22T02:23:54;95258.56;;;14.25;100.00
63097;BME280;49185;42.320;23.198;2023-06-22T02:26:20;95263.00;;;14.09;100.00
63097;BME280;49185;42.320;23.198;2023-06-22T02:28:45;95260.34;;;14.09;100.00
63097;BME280;49185;42.320;23.198;2023-06-22T02:31:11;95259.50;;;14.03;100.00
63097;BME280;49185;42.320;23.198;2023-06-22T02:33:36;95257.94;;;14.13;100.00
63097;BME280;49185;42.320;23.198;2023-06-22T02:36:01;95254.97;;;14.09;100.00
63097;BME280;49185;42.320;23.198;2023-06-22T02:38:27;95250.22;;;14.16;100.00
63097;BME280;49185;42.320;23.198;2023-06-22T02:40:53;95243.94;;;14.38;100.00
63097;BME280;49185;42.320;23.198;2023-06-22T02:43:18;95240.09;;;14.71;100.00
63097;BME280;49185;42.320;23.198;2023-06-22T02:45:44;95240.00;;;14.56;100.00
63097;BME280;49185;42.320;23.198;2023-06-22T02:48:09;95239.19;;;14.50;100.00
63097;BME280;49185;42.320;23.198;2023-06-22T02:50:35;95241.06;;;14.55;100.00
63097;BME280;49185;42.320;23.198;2023-06-22T02:53:00;95247.59;;;14.69;100.00
63097;BME280;49185;42.320;23.198;2023-06-22T02:55:26;95245.72;;;14.65;100.00
63097;BME280;49185;42.320;23.198;2023-06-22T02:57:51;95248.31;;;14.54;100.00
63097;BME280;49185;42.320;23.198;2023-06-22T03:00:17;95244.28;;;14.57;100.00
63097;BME280;49185;42.320;23.198;2023-06-22T03:02:46;95244.53;;;14.50;100.00
63097;BME280;49185;42.320;23.198;2023-06-22T03:05:13;95240.13;;;14.29;100.00
63097;BME280;49185;42.320;23.198;2023-06-22T03:07:42;95248.38;;;14.17;100.00
63097;BME280;49185;42.320;23.198;2023-06-22T03:27:33;95265.66;;;14.94;100.00
63097;BME280;49185;42.320;23.198;2023-06-22T03:30:18;95270.81;;;15.22;100.00
63097;BME280;49185;42.320;23.198;2023-06-22T03:33:04;95267.13;;;15.48;100.00
63097;BME280;49185;42.320;23.198;2023-06-22T03:35:50;95281.03;;;15.35;100.00
63097;BME280;49185;42.320;23.198;2023-06-22T03:38:36;95289.63;;;15.37;100.00
63097;BME280;49185;42.320;23.198;2023-06-22T03:41:22;95283.72;;;15.45;99.53
63097;BME280;49185;42.320;23.198;2023-06-22T03:44:07;95284.81;;;15.44;100.00
63097;BME280;49185;42.320;23.198;2023-06-22T03:46:53;95293.16;;;15.73;99.19
63097;BME280;49185;42.320;23.198;2023-06-22T03:49:39;95292.94;;;15.85;98.61
63097;BME280;49185;42.320;23.198;2023-06-22T03:52:24;95284.91;;;15.96;98.45
63097;BME280;49185;42.320;23.198;2023-06-22T03:55:10;95290.25;;;16.06;98.91
63097;BME280;49185;42.320;23.198;2023-06-22T03:57:56;95294.81;;;16.26;98.75
63097;BME280;49185;42.320;23.198;2023-06-22T04:00:41;95304.19;;;16.39;99.23
63097;BME280;49185;42.320;23.198;2023-06-22T04:03:27;95289.91;;;16.54;99.04
63097;BME280;49185;42.320;23.198;2023-06-22T04:06:13;95303.31;;;16.74;98.03
63097;BME280;49185;42.320;23.198;2023-06-22T04:08:59;95307.31;;;16.87;95.46
63097;BME280;49185;42.320;23.198;2023-06-22T04:11:44;95322.56;;;17.12;95.54
63097;BME280;49185;42.320;23.198;2023-06-22T04:14:30;95321.25;;;17.04;96.03
63097;BME280;49185;42.320;23.198;2023-06-22T04:17:16;95319.97;;;16.92;96.62
63097;BME280;49185;42.320;23.198;2023-06-22T04:19:42;95323.19;;;16.83;97.35
63097;BME280;49185;42.320;23.198;2023-06-22T04:22:07;95319.44;;;16.84;96.99
63097;BME280;49185;42.320;23.198;2023-06-22T04:24:33;95317.00;;;16.88;96.99
63097;BME280;49185;42.320;23.198;2023-06-22T04:26:58;95313.19;;;17.04;97.42
63097;BME280;49185;42.320;23.198;2023-06-22T04:29:24;95321.19;;;17.20;96.94
63097;BME280;49185;42.320;23.198;2023-06-22T04:31:49;95316.50;;;17.46;96.12
63097;BME280;49185;42.320;23.198;2023-06-22T04:34:15;95324.13;;;17.78;95.09
63097;BME280;49185;42.320;23.198;2023-06-22T04:36:40;95324.00;;;17.99;93.68
63097;BME280;49185;42.320;23.198;2023-06-22T04:39:10;95331.38;;;18.23;92.41
63097;BME280;49185;42.320;23.198;2023-06-22T04:41:37;95320.63;;;18.47;90.53
63097;BME280;49185;42.320;23.198;2023-06-22T04:44:02;95314.78;;;18.69;90.35
63097;BME280;49185;42.320;23.198;2023-06-22T04:46:28;95323.41;;;19.19;87.62
63097;BME280;49185;42.320;23.198;2023-06-22T04:48:53;95322.50;;;19.67;85.33
63097;BME280;49185;42.320;23.198;2023-06-22T04:51:19;95327.84;;;20.62;79.71
63097;BME280;49185;42.320;23.198;2023-06-22T04:53:44;95322.56;;;21.40;76.46
63097;BME280;49185;42.320;23.198;2023-06-22T04:56:10;95332.56;;;21.81;74.87
63097;BME280;49185;42.320;23.198;2023-06-22T04:58:35;95340.56;;;21.86;74.03
63097;BME280;49185;42.320;23.198;2023-06-22T05:01:01;95328.13;;;22.44;71.69
63097;BME280;49185;42.320;23.198;2023-06-22T05:03:26;95332.66;;;22.49;68.74
63097;BME280;49185;42.320;23.198;2023-06-22T05:05:52;95339.47;;;22.69;69.05
63097;BME280;49185;42.320;23.198;2023-06-22T05:08:17;95324.44;;;23.34;67.70
63097;BME280;49185;42.320;23.198;2023-06-22T05:10:43;95326.63;;;23.81;66.06
63097;BME280;49185;42.320;23.198;2023-06-22T05:13:08;95328.38;;;23.77;63.74
63097;BME280;49185;42.320;23.198;2023-06-22T05:15:34;95333.19;;;23.88;63.58
63097;BME280;49185;42.320;23.198;2023-06-22T05:17:59;95333.31;;;23.75;65.12
63097;BME280;49185;42.320;23.198;2023-06-22T05:20:25;95335.28;;;24.26;62.97
63097;BME280;49185;42.320;23.198;2023-06-22T05:22:50;95324.88;;;24.11;63.58
63097;BME280;49185;42.320;23.198;2023-06-22T05:25:16;95330.50;;;25.06;61.06
63097;BME280;49185;42.320;23.198;2023-06-22T05:27:41;95329.47;;;25.28;60.67
63097;BME280;49185;42.320;23.198;2023-06-22T05:30:07;95329.19;;;25.12;60.54
63097;BME280;49185;42.320;23.198;2023-06-22T05:32:33;95333.16;;;24.76;62.01
63097;BME280;49185;42.320;23.198;2023-06-22T05:34:59;95331.72;;;24.70;62.76
63097;BME280;49185;42.320;23.198;2023-06-22T05:37:24;95331.41;;;24.36;61.33
63097;BME280;49185;42.320;23.198;2023-06-22T05:39:50;95334.16;;;24.54;61.72
63097;BME280;49185;42.320;23.198;2023-06-22T05:42:15;95329.63;;;26.45;55.83
63097;BME280;49185;42.320;23.198;2023-06-22T05:44:41;95326.25;;;26.27;56.38
63097;BME280;49185;42.320;23.198;2023-06-22T05:47:06;95333.91;;;26.34;56.24
63097;BME280;49185;42.320;23.198;2023-06-22T05:49:32;95329.53;;;26.21;56.03
63097;BME280;49185;42.320;23.198;2023-06-22T05:51:58;95323.94;;;26.71;54.06
63097;BME280;49185;42.320;23.198;2023-06-22T05:54:24;95329.22;;;25.71;57.80
63097;BME280;49185;42.320;23.198;2023-06-22T05:56:49;95339.59;;;25.10;59.65
63097;BME280;49185;42.320;23.198;2023-06-22T05:59:14;95340.78;;;26.19;56.23
63097;BME280;49185;42.320;23.198;2023-06-22T06:01:40;95348.72;;;25.82;58.60
63097;BME280;49185;42.320;23.198;2023-06-22T06:04:06;95343.75;;;25.54;57.90
63097;BME280;49185;42.320;23.198;2023-06-22T06:06:31;95343.59;;;24.48;62.27
63097;BME280;49185;42.320;23.198;2023-06-22T06:08:57;95341.38;;;26.25;57.51
63097;BME280;49185;42.320;23.198;2023-06-22T06:11:22;95349.25;;;27.05;54.61
63097;BME280;49185;42.320;23.198;2023-06-22T06:13:48;95356.53;;;26.89;56.63
63097;BME280;49185;42.320;23.198;2023-06-22T06:16:13;95358.78;;;26.11;56.97
63097;BME280;49185;42.320;23.198;2023-06-22T06:18:39;95351.03;;;26.01;55.72
63097;BME280;49185;42.320;23.198;2023-06-22T06:21:04;95354.50;;;25.81;54.89
63097;BME280;49185;42.320;23.198;2023-06-22T06:23:29;95346.09;;;25.94;54.93
63097;BME280;49185;42.320;23.198;2023-06-22T06:25:55;95342.66;;;26.61;54.59
63097;BME280;49185;42.320;23.198;2023-06-22T06:28:21;95345.34;;;26.82;52.89
63097;BME280;49185;42.320;23.198;2023-06-22T06:30:47;95353.78;;;26.34;53.20
63097;BME280;49185;42.320;23.198;2023-06-22T06:33:13;95346.97;;;26.83;54.65
63097;BME280;49185;42.320;23.198;2023-06-22T06:35:38;95347.75;;;27.66;52.21
63097;BME280;49185;42.320;23.198;2023-06-22T06:38:04;95335.31;;;27.81;50.44
63097;BME280;49185;42.320;23.198;2023-06-22T06:40:29;95337.34;;;28.09;51.32
63097;BME280;49185;42.320;23.198;2023-06-22T06:42:55;95336.34;;;28.86;49.20
63097;BME280;49185;42.320;23.198;2023-06-22T06:45:21;95341.00;;;28.69;49.30
63097;BME280;49185;42.320;23.198;2023-06-22T06:47:48;95332.50;;;29.50;46.07
63097;BME280;49185;42.320;23.198;2023-06-22T06:50:14;95325.25;;;30.29;42.80
63097;BME280;49185;42.320;23.198;2023-06-22T06:52:40;95331.63;;;29.98;43.13
63097;BME280;49185;42.320;23.198;2023-06-22T06:55:05;95344.22;;;30.18;42.00
63097;BME280;49185;42.320;23.198;2023-06-22T06:57:31;95341.25;;;30.07;43.12
63097;BME280;49185;42.320;23.198;2023-06-22T06:59:57;95339.22;;;29.53;43.91
63097;BME280;49185;42.320;23.198;2023-06-22T07:02:23;95330.97;;;29.69;43.37
63097;BME280;49185;42.320;23.198;2023-06-22T07:04:48;95328.59;;;29.67;45.12
63097;BME280;49185;42.320;23.198;2023-06-22T07:07:14;95337.66;;;29.52;44.90
63097;BME280;49185;42.320;23.198;2023-06-22T07:09:40;95333.13;;;29.60;44.93
63097;BME280;49185;42.320;23.198;2023-06-22T07:12:05;95336.22;;;29.58;44.47
63097;BME280;49185;42.320;23.198;2023-06-22T07:14:31;95330.97;;;29.69;43.60
63097;BME280;49185;42.320;23.198;2023-06-22T07:16:57;95334.81;;;29.64;44.90
63097;BME280;49185;42.320;23.198;2023-06-22T07:19:26;95323.28;;;28.95;46.28
63097;BME280;49185;42.320;23.198;2023-06-22T07:21:53;95330.59;;;28.75;47.84
63097;BME280;49185;42.320;23.198;2023-06-22T07:24:19;95318.06;;;29.69;45.67
63097;BME280;49185;42.320;23.198;2023-06-22T07:26:44;95316.72;;;30.73;43.88
63097;BME280;49185;42.320;23.198;2023-06-22T07:29:09;95319.59;;;30.02;43.06
63097;BME280;49185;42.320;23.198;2023-06-22T07:31:35;95310.50;;;28.99;46.58
63097;BME280;49185;42.320;23.198;2023-06-22T07:34:00;95310.81;;;28.82;47.18
63097;BME280;49185;42.320;23.198;2023-06-22T07:36:26;95315.84;;;28.51;47.45
63097;BME280;49185;42.320;23.198;2023-06-22T07:38:51;95307.53;;;28.76;47.91
63097;BME280;49185;42.320;23.198;2023-06-22T07:41:16;95312.06;;;28.28;52.05
63097;BME280;49185;42.320;23.198;2023-06-22T07:43:42;95302.03;;;27.91;53.50
63097;BME280;49185;42.320;23.198;2023-06-22T07:46:07;95304.31;;;27.89;51.76
63097;BME280;49185;42.320;23.198;2023-06-22T07:48:36;95306.28;;;28.17;51.84
63097;BME280;49185;42.320;23.198;2023-06-22T07:51:02;95302.38;;;27.77;51.02
63097;BME280;49185;42.320;23.198;2023-06-22T07:53:27;95301.28;;;29.07;50.18
63097;BME280;49185;42.320;23.198;2023-06-22T07:55:53;95303.81;;;29.64;48.52
63097;BME280;49185;42.320;23.198;2023-06-22T07:58:18;95300.00;;;29.17;49.69
63097;BME280;49185;42.320;23.198;2023-06-22T08:00:44;95304.13;;;29.27;49.40
63097;BME280;49185;42.320;23.198;2023-06-22T08:03:09;95306.56;;;29.99;48.81
63097;BME280;49185;42.320;23.198;2023-06-22T08:05:35;95300.53;;;30.91;47.28
63097;BME280;49185;42.320;23.198;2023-06-22T08:08:00;95296.63;;;31.88;42.68
63097;BME280;49185;42.320;23.198;2023-06-22T08:10:26;95299.28;;;31.54;46.60
63097;BME280;49185;42.320;23.198;2023-06-22T08:12:51;95304.75;;;30.42;48.16
63097;BME280;49185;42.320;23.198;2023-06-22T08:15:18;95298.16;;;30.90;47.58
63097;BME280;49185;42.320;23.198;2023-06-22T08:17:44;95289.59;;;31.64;47.00
63097;BME280;49185;42.320;23.198;2023-06-22T08:20:10;95292.41;;;30.75;49.41
63097;BME280;49185;42.320;23.198;2023-06-22T08:22:36;95289.38;;;31.76;44.99
63097;BME280;49185;42.320;23.198;2023-06-22T08:25:01;95290.75;;;31.63;45.32
63097;BME280;49185;42.320;23.198;2023-06-22T08:27:26;95289.25;;;31.42;47.75
63097;BME280;49185;42.320;23.198;2023-06-22T08:29:52;95283.63;;;32.15;48.21
63097;BME280;49185;42.320;23.198;2023-06-22T08:32:17;95281.19;;;33.67;41.00
63097;BME280;49185;42.320;23.198;2023-06-22T08:34:43;95264.44;;;32.98;41.80
63097;BME280;49185;42.320;23.198;2023-06-22T08:37:09;95273.81;;;31.34;47.85
63097;BME280;49185;42.320;23.198;2023-06-22T08:39:34;95276.25;;;30.12;46.67
63097;BME280;49185;42.320;23.198;2023-06-22T08:42:00;95268.47;;;31.18;48.81
63097;BME280;49185;42.320;23.198;2023-06-22T08:44:25;95264.28;;;31.28;46.05
63097;BME280;49185;42.320;23.198;2023-06-22T08:46:51;95268.09;;;30.15;49.70
63097;BME280;49185;42.320;23.198;2023-06-22T08:49:16;95265.72;;;28.63;52.08
63097;BME280;49185;42.320;23.198;2023-06-22T08:51:41;95262.38;;;27.73;54.16
63097;BME280;49185;42.320;23.198;2023-06-22T08:54:07;95258.00;;;27.56;56.00
63097;BME280;49185;42.320;23.198;2023-06-22T08:56:32;95256.50;;;27.58;56.95
63097;BME280;49185;42.320;23.198;2023-06-22T08:58:58;95259.97;;;27.31;57.99
63097;BME280;49185;42.320;23.198;2023-06-22T09:01:23;95257.56;;;27.41;59.04
63097;BME280;49185;42.320;23.198;2023-06-22T09:03:49;95254.53;;;29.32;55.21
63097;BME280;49185;42.320;23.198;2023-06-22T09:06:14;95260.22;;;30.95;52.89
63097;BME280;49185;42.320;23.198;2023-06-22T09:08:39;95252.88;;;32.10;45.15
63097;BME280;49185;42.320;23.198;2023-06-22T09:11:05;95245.88;;;32.16;47.18
63097;BME280;49185;42.320;23.198;2023-06-22T09:13:31;95257.22;;;32.45;46.40
63097;BME280;49185;42.320;23.198;2023-06-22T09:15:56;95249.91;;;32.26;45.52
63097;BME280;49185;42.320;23.198;2023-06-22T09:18:22;95251.75;;;30.84;48.00
63097;BME280;49185;42.320;23.198;2023-06-22T09:20:47;95256.34;;;30.34;48.90
63097;BME280;49185;42.320;23.198;2023-06-22T09:23:13;95262.72;;;32.82;40.54
63097;BME280;49185;42.320;23.198;2023-06-22T09:25:38;95258.97;;;34.16;39.06
63097;BME280;49185;42.320;23.198;2023-06-22T09:28:03;95261.97;;;35.60;34.40
63097;BME280;49185;42.320;23.198;2023-06-22T09:30:29;95259.19;;;35.06;33.09
63097;BME280;49185;42.320;23.198;2023-06-22T09:32:54;95248.44;;;34.47;32.64
63097;BME280;49185;42.320;23.198;2023-06-22T09:35:20;95250.53;;;33.87;34.49
63097;BME280;49185;42.320;23.198;2023-06-22T09:37:45;95243.38;;;34.74;34.04
63097;BME280;49185;42.320;23.198;2023-06-22T09:40:11;95243.28;;;34.49;33.48
63097;BME280;49185;42.320;23.198;2023-06-22T09:42:37;95237.38;;;34.43;34.38
63097;BME280;49185;42.320;23.198;2023-06-22T09:45:02;95248.91;;;34.74;33.14
63097;BME280;49185;42.320;23.198;2023-06-22T09:47:29;95248.53;;;35.11;31.49
63097;BME280;49185;42.320;23.198;2023-06-22T09:49:54;95244.97;;;34.86;32.42
63097;BME280;49185;42.320;23.198;2023-06-22T09:52:19;95237.31;;;34.21;33.10
63097;BME280;49185;42.320;23.198;2023-06-22T09:54:45;95238.53;;;34.42;34.19
63097;BME280;49185;42.320;23.198;2023-06-22T09:57:10;95237.50;;;33.77;34.40
63097;BME280;49185;42.320;23.198;2023-06-22T09:59:36;95229.59;;;33.75;34.35
63097;BME280;49185;42.320;23.198;2023-06-22T10:02:01;95237.78;;;34.52;33.08
63097;BME280;49185;42.320;23.198;2023-06-22T10:04:27;95239.41;;;33.69;34.78
63097;BME280;49185;42.320;23.198;2023-06-22T10:06:52;95235.97;;;33.27;37.19
63097;BME280;49185;42.320;23.198;2023-06-22T10:09:17;95238.22;;;33.70;34.38
63097;BME280;49185;42.320;23.198;2023-06-22T10:11:43;95238.41;;;33.40;36.73
63097;BME280;49185;42.320;23.198;2023-06-22T10:14:08;95231.25;;;34.01;35.53
63097;BME280;49185;42.320;23.198;2023-06-22T10:16:36;95231.28;;;34.09;35.19
63097;BME280;49185;42.320;23.198;2023-06-22T10:19:02;95235.13;;;33.79;38.51
63097;BME280;49185;42.320;23.198;2023-06-22T10:21:27;95232.75;;;34.79;33.94
63097;BME280;49185;42.320;23.198;2023-06-22T10:23:53;95230.38;;;35.28;32.41
63097;BME280;49185;42.320;23.198;2023-06-22T10:26:18;95225.94;;;34.55;34.09
63097;BME280;49185;42.320;23.198;2023-06-22T10:28:43;95226.31;;;34.36;33.25
63097;BME280;49185;42.320;23.198;2023-06-22T10:31:09;95222.22;;;34.04;36.57
63097;BME280;49185;42.320;23.198;2023-06-22T10:33:34;95216.78;;;32.94;37.13
63097;BME280;49185;42.320;23.198;2023-06-22T10:36:00;95205.38;;;32.99;37.30
63097;BME280;49185;42.320;23.198;2023-06-22T10:38:25;95207.09;;;31.68;41.27
63097;BME280;49185;42.320;23.198;2023-06-22T10:40:51;95207.53;;;31.16;43.03
63097;BME280;49185;42.320;23.198;2023-06-22T10:43:16;95210.81;;;30.76;43.88
63097;BME280;49185;42.320;23.198;2023-06-22T10:45:42;95206.06;;;32.47;41.23
63097;BME280;49185;42.320;23.198;2023-06-22T10:48:07;95203.47;;;33.65;39.22
63097;BME280;49185;42.320;23.198;2023-06-22T10:50:33;95202.19;;;34.26;38.94
63097;BME280;49185;42.320;23.198;2023-06-22T10:52:58;95205.88;;;34.76;35.30
63097;BME280;49185;42.320;23.198;2023-06-22T10:55:24;95199.41;;;34.22;35.27
63097;BME280;49185;42.320;23.198;2023-06-22T10:57:49;95201.03;;;34.34;36.35
63097;BME280;49185;42.320;23.198;2023-06-22T11:00:15;95200.63;;;34.28;36.82
63097;BME280;49185;42.320;23.198;2023-06-22T11:02:40;95195.91;;;34.32;38.23
63097;BME280;49185;42.320;23.198;2023-06-22T11:05:06;95197.56;;;35.20;33.98
63097;BME280;49185;42.320;23.198;2023-06-22T11:07:32;95198.72;;;34.68;35.16
63097;BME280;49185;42.320;23.198;2023-06-22T11:09:57;95195.19;;;35.36;33.20
63097;BME280;49185;42.320;23.198;2023-06-22T11:12:22;95196.72;;;34.58;32.42
63097;BME280;49185;42.320;23.198;2023-06-22T11:14:48;95188.50;;;34.90;31.88
63097;BME280;49185;42.320;23.198;2023-06-22T11:17:13;95190.16;;;36.19;29.38
63097;BME280;49185;42.320;23.198;2023-06-22T11:19:39;95189.66;;;35.07;32.00
63097;BME280;49185;42.320;23.198;2023-06-22T11:22:05;95179.41;;;35.26;33.10
63097;BME280;49185;42.320;23.198;2023-06-22T11:24:30;95189.22;;;35.63;33.17
63097;BME280;49185;42.320;23.198;2023-06-22T11:26:55;95189.22;;;35.73;30.24
63097;BME280;49185;42.320;23.198;2023-06-22T11:29:21;95178.13;;;34.37;32.82
63097;BME280;49185;42.320;23.198;2023-06-22T11:31:46;95188.81;;;33.51;33.31
63097;BME280;49185;42.320;23.198;2023-06-22T11:34:12;95184.91;;;32.55;35.24
63097;BME280;49185;42.320;23.198;2023-06-22T11:36:37;95180.13;;;32.11;36.80
63097;BME280;49185;42.320;23.198;2023-06-22T11:39:03;95184.03;;;32.88;36.50
63097;BME280;49185;42.320;23.198;2023-06-22T11:41:28;95175.84;;;33.62;36.39
63097;BME280;49185;42.320;23.198;2023-06-22T11:43:53;95175.81;;;34.46;33.96
63097;BME280;49185;42.320;23.198;2023-06-22T11:46:19;95176.19;;;34.37;32.91
63097;BME280;49185;42.320;23.198;2023-06-22T11:48:45;95175.84;;;34.96;33.53
63097;BME280;49185;42.320;23.198;2023-06-22T11:51:10;95173.19;;;33.73;34.63
63097;BME280;49185;42.320;23.198;2023-06-22T11:53:36;95159.25;;;32.88;37.20
63097;BME280;49185;42.320;23.198;2023-06-22T11:56:01;95156.00;;;31.67;40.24
63097;BME280;49185;42.320;23.198;2023-06-22T11:58:27;95157.94;;;32.34;40.60
63097;BME280;49185;42.320;23.198;2023-06-22T12:00:53;95159.59;;;34.34;37.29
63097;BME280;49185;42.320;23.198;2023-06-22T12:03:19;95159.25;;;34.93;30.25
63097;BME280;49185;42.320;23.198;2023-06-22T12:05:45;95154.13;;;34.70;30.64
63097;BME280;49185;42.320;23.198;2023-06-22T12:08:10;95149.78;;;34.72;32.44
63097;BME280;49185;42.320;23.198;2023-06-22T12:10:35;95152.91;;;34.56;33.11
63097;BME280;49185;42.320;23.198;2023-06-22T12:13:01;95147.41;;;34.99;32.60
63097;BME280;49185;42.320;23.198;2023-06-22T12:15:26;95145.78;;;35.27;30.47
63097;BME280;49185;42.320;23.198;2023-06-22T12:17:52;95140.09;;;35.88;29.24
63097;BME280;49185;42.320;23.198;2023-06-22T12:20:18;95125.63;;;35.34;29.68
63097;BME280;49185;42.320;23.198;2023-06-22T12:22:43;95118.97;;;34.95;30.79
63097;BME280;49185;42.320;23.198;2023-06-22T12:25:09;95118.91;;;35.35;30.57
63097;BME280;49185;42.320;23.198;2023-06-22T12:27:35;95120.22;;;36.71;30.81
63097;BME280;49185;42.320;23.198;2023-06-22T12:30:01;95119.84;;;36.69;28.36
63097;BME280;49185;42.320;23.198;2023-06-22T12:32:27;95121.72;;;34.92;31.61
63097;BME280;49185;42.320;23.198;2023-06-22T12:34:52;95132.78;;;35.06;31.22
63097;BME280;49185;42.320;23.198;2023-06-22T12:37:18;95127.53;;;34.00;31.01
63097;BME280;49185;42.320;23.198;2023-06-22T12:39:43;95123.78;;;32.87;31.55
63097;BME280;49185;42.320;23.198;2023-06-22T12:42:09;95121.16;;;32.57;35.46
63097;BME280;49185;42.320;23.198;2023-06-22T12:44:38;95118.88;;;32.21;36.69
63097;BME280;49185;42.320;23.198;2023-06-22T12:47:04;95112.78;;;31.37;35.89
63097;BME280;49185;42.320;23.198;2023-06-22T12:49:29;95123.88;;;30.64;35.01
63097;BME280;49185;42.320;23.198;2023-06-22T12:51:55;95141.31;;;30.75;36.54
63097;BME280;49185;42.320;23.198;2023-06-22T12:54:20;95139.41;;;29.32;40.86
63097;BME280;49185;42.320;23.198;2023-06-22T12:56:50;95147.22;;;27.74;43.12
63097;BME280;49185;42.320;23.198;2023-06-22T12:59:16;95156.84;;;26.66;50.57
63097;BME280;49185;42.320;23.198;2023-06-22T13:01:41;95157.34;;;26.34;51.79
63097;BME280;49185;42.320;23.198;2023-06-22T13:04:07;95161.16;;;25.97;54.84
63097;BME280;49185;42.320;23.198;2023-06-22T13:06:32;95184.91;;;25.75;61.25
63097;BME280;49185;42.320;23.198;2023-06-22T13:08:57;95206.56;;;22.37;81.09
63097;BME280;49185;42.320;23.198;2023-06-22T13:11:23;95192.75;;;21.49;82.15
63097;BME280;49185;42.320;23.198;2023-06-22T13:13:48;95176.34;;;20.81;84.56
63097;BME280;49185;42.320;23.198;2023-06-22T13:16:14;95161.00;;;20.35;92.34
63097;BME280;49185;42.320;23.198;2023-06-22T13:18:39;95165.50;;;20.25;99.07